sensor_id;sensor_type;location;lat;lon;timestamp;pressure;altitude;pressure_sealevel;temperature;humidity
80186;BME280;69904;52.122;5.422;2023-09-19T00:00:44;100729.88;;;14.44;86.95
80186;BME280;69904;52.122;5.422;2023-09-19T00:03:13;100731.75;;;14.43;86.57
80186;BME280;69904;52.122;5.422;2023-09-19T00:05:39;100729.28;;;14.42;86.46
80186;BME280;69904;52.122;5.422;2023-09-19T00:08:06;100728.88;;;14.38;86.74
80186;BME280;69904;52.122;5.422;2023-09-19T00:10:33;100733.69;;;14.36;86.44
80186;BME280;69904;52.122;5.422;2023-09-19T00:13:03;100742.88;;;14.35;86.38
80186;BME280;69904;52.122;5.422;2023-09-19T00:15:39;100749.00;;;14.30;86.72
80186;BME280;69904;52.122;5.422;2023-09-19T00:18:07;100755.00;;;14.32;86.65
80186;BME280;69904;52.122;5.422;2023-09-19T00:20:36;100758.81;;;14.31;86.59
80186;BME280;69904;52.122;5.422;2023-09-19T00:23:03;100756.75;;;14.27;86.79
80186;BME280;69904;52.122;5.422;2023-09-19T00:25:30;100747.19;;;14.24;86.88
80186;BME280;69904;52.122;5.422;2023-09-19T00:27:58;100748.59;;;14.27;87.12
80186;BME280;69904;52.122;5.422;2023-09-19T00:30:25;100753.81;;;14.28;86.99
80186;BME280;69904;52.122;5.422;2023-09-19T00:32:52;100751.31;;;14.27;87.12
80186;BME280;69904;52.122;5.422;2023-09-19T00:35:19;100760.06;;;14.29;86.80
80186;BME280;69904;52.122;5.422;2023-09-19T00:37:45;100749.69;;;14.26;86.96
80186;BME280;69904;52.122;5.422;2023-09-19T00:40:12;100765.56;;;14.22;87.13
80186;BME280;69904;52.122;5.422;2023-09-19T00:42:39;100757.41;;;14.22;87.01
80186;BME280;69904;52.122;5.422;2023-09-19T00:45:10;100762.63;;;14.24;87.10
80186;BME280;69904;52.122;5.422;2023-09-19T00:47:43;100761.19;;;14.21;87.34
80186;BME280;69904;52.122;5.422;2023-09-19T00:50:11;100764.97;;;14.20;87.80
80186;BME280;69904;52.122;5.422;2023-09-19T00:52:42;100764.13;;;14.20;87.51
80186;BME280;69904;52.122;5.422;2023-09-19T00:55:10;100766.03;;;14.19;87.90
80186;BME280;69904;52.122;5.422;2023-09-19T00:57:38;100766.84;;;14.20;88.14
80186;BME280;69904;52.122;5.422;2023-09-19T01:00:09;100767.44;;;14.22;88.13
80186;BME280;69904;52.122;5.422;2023-09-19T01:02:42;100775.59;;;14.22;88.11
80186;BME280;69904;52.122;5.422;2023-09-19T01:05:10;100781.41;;;14.25;88.33
80186;BME280;69904;52.122;5.422;2023-09-19T01:07:36;100784.50;;;14.29;88.44
80186;BME280;69904;52.122;5.422;2023-09-19T01:10:11;100785.56;;;14.28;88.04
80186;BME280;69904;52.122;5.422;2023-09-19T01:20:39;100787.84;;;14.31;88.37
80186;BME280;69904;52.122;5.422;2023-09-19T01:23:26;100781.78;;;14.29;88.54
80186;BME280;69904;52.122;5.422;2023-09-19T01:28:38;100782.00;;;14.27;88.41
80186;BME280;69904;52.122;5.422;2023-09-19T01:31:09;100787.22;;;14.29;88.76
80186;BME280;69904;52.122;5.422;2023-09-19T01:33:55;100787.22;;;14.29;88.73
80186;BME280;69904;52.122;5.422;2023-09-19T01:36:34;100783.69;;;14.28;88.85
80186;BME280;69904;52.122;5.422;2023-09-19T01:39:09;100784.97;;;14.26;88.99
80186;BME280;69904;52.122;5.422;2023-09-19T01:41:56;100780.59;;;14.25;88.82
80186;BME280;69904;52.122;5.422;2023-09-19T01:44:36;100787.44;;;14.27;89.11
80186;BME280;69904;52.122;5.422;2023-09-19T01:47:17;100793.31;;;14.24;89.12
80186;BME280;69904;52.122;5.422;2023-09-19T01:49:55;100789.78;;;14.24;89.39
80186;BME280;69904;52.122;5.422;2023-09-19T01:52:28;100791.66;;;14.23;89.10
80186;BME280;69904;52.122;5.422;2023-09-19T01:55:01;100799.81;;;14.23;89.37
80186;BME280;69904;52.122;5.422;2023-09-19T01:57:36;100795.19;;;14.24;88.90
80186;BME280;69904;52.122;5.422;2023-09-19T02:00:07;100802.50;;;14.23;88.79
80186;BME280;69904;52.122;5.422;2023-09-19T02:02:37;100796.03;;;14.24;88.52
80186;BME280;69904;52.122;5.422;2023-09-19T02:05:04;100796.03;;;14.24;88.27
80186;BME280;69904;52.122;5.422;2023-09-19T02:07:31;100798.75;;;14.24;88.31
80186;BME280;69904;52.122;5.422;2023-09-19T02:09:58;100799.81;;;14.23;88.20
80186;BME280;69904;52.122;5.422;2023-09-19T02:12:31;100796.25;;;14.23;88.09
80186;BME280;69904;52.122;5.422;2023-09-19T02:14:59;100792.94;;;14.21;88.10
80186;BME280;69904;52.122;5.422;2023-09-19T02:17:25;100792.34;;;14.19;87.88
80186;BME280;69904;52.122;5.422;2023-09-19T02:19:54;100788.78;;;14.18;87.78
80186;BME280;69904;52.122;5.422;2023-09-19T02:22:21;100785.69;;;14.15;87.48
80186;BME280;69904;52.122;5.422;2023-09-19T02:24:49;100790.50;;;14.13;87.19
80186;BME280;69904;52.122;5.422;2023-09-19T02:27:15;100798.84;;;14.11;87.45
80186;BME280;69904;52.122;5.422;2023-09-19T02:29:42;100791.75;;;14.10;87.34
80186;BME280;69904;52.122;5.422;2023-09-19T02:32:08;100801.19;;;14.08;86.87
80186;BME280;69904;52.122;5.422;2023-09-19T02:34:38;100811.22;;;14.07;86.77
80186;BME280;69904;52.122;5.422;2023-09-19T02:37:05;100806.63;;;14.08;86.66
80186;BME280;69904;52.122;5.422;2023-09-19T02:39:32;100803.53;;;14.04;86.68
80186;BME280;69904;52.122;5.422;2023-09-19T02:41:58;100809.16;;;14.03;86.34
80186;BME280;69904;52.122;5.422;2023-09-19T02:44:25;100806.88;;;14.00;86.17
80186;BME280;69904;52.122;5.422;2023-09-19T02:46:51;100819.22;;;13.96;86.26
80186;BME280;69904;52.122;5.422;2023-09-19T02:49:18;100812.81;;;13.90;86.21
80186;BME280;69904;52.122;5.422;2023-09-19T02:51:45;100814.28;;;13.86;86.23
80186;BME280;69904;52.122;5.422;2023-09-19T02:54:12;100813.91;;;13.82;86.31
80186;BME280;69904;52.122;5.422;2023-09-19T02:56:39;100816.47;;;13.77;85.92
80186;BME280;69904;52.122;5.422;2023-09-19T02:59:05;100810.22;;;13.70;85.62
80186;BME280;69904;52.122;5.422;2023-09-19T03:01:32;100816.13;;;13.67;85.61
80186;BME280;69904;52.122;5.422;2023-09-19T03:03:58;100816.31;;;13.66;85.46
80186;BME280;69904;52.122;5.422;2023-09-19T03:06:25;100810.72;;;13.61;85.23
80186;BME280;69904;52.122;5.422;2023-09-19T03:08:51;100807.84;;;13.56;85.02
80186;BME280;69904;52.122;5.422;2023-09-19T03:11:18;100805.53;;;13.53;85.00
80186;BME280;69904;52.122;5.422;2023-09-19T03:13:52;100798.69;;;13.50;85.10
80186;BME280;69904;52.122;5.422;2023-09-19T03:16:19;100807.47;;;13.45;84.98
80186;BME280;69904;52.122;5.422;2023-09-19T03:18:48;100810.81;;;13.41;84.44
80186;BME280;69904;52.122;5.422;2023-09-19T03:21:16;100817.50;;;13.38;84.76
80186;BME280;69904;52.122;5.422;2023-09-19T03:23:43;100813.13;;;13.37;83.98
80186;BME280;69904;52.122;5.422;2023-09-19T03:26:12;100809.19;;;13.33;84.03
80186;BME280;69904;52.122;5.422;2023-09-19T03:28:39;100802.56;;;13.29;84.37
80186;BME280;69904;52.122;5.422;2023-09-19T03:31:06;100814.06;;;13.25;83.66
80186;BME280;69904;52.122;5.422;2023-09-19T03:33:33;100815.31;;;13.22;83.80
80186;BME280;69904;52.122;5.422;2023-09-19T03:36:02;100814.66;;;13.20;83.24
80186;BME280;69904;52.122;5.422;2023-09-19T03:38:32;100820.31;;;13.19;83.66
80186;BME280;69904;52.122;5.422;2023-09-19T03:41:01;100811.78;;;13.15;83.24
80186;BME280;69904;52.122;5.422;2023-09-19T03:43:28;100811.38;;;13.12;83.29
80186;BME280;69904;52.122;5.422;2023-09-19T03:45:54;100803.44;;;13.10;82.67
80186;BME280;69904;52.122;5.422;2023-09-19T03:48:21;100803.88;;;13.07;83.10
80186;BME280;69904;52.122;5.422;2023-09-19T03:50:50;100798.66;;;13.05;82.94
80186;BME280;69904;52.122;5.422;2023-09-19T03:53:18;100799.69;;;13.04;82.42
80186;BME280;69904;52.122;5.422;2023-09-19T03:55:45;100807.22;;;13.02;82.27
80186;BME280;69904;52.122;5.422;2023-09-19T03:58:12;100797.44;;;13.01;81.96
80186;BME280;69904;52.122;5.422;2023-09-19T04:00:39;100807.88;;;12.98;81.75
80186;BME280;69904;52.122;5.422;2023-09-19T04:03:06;100815.16;;;12.97;81.62
80186;BME280;69904;52.122;5.422;2023-09-19T04:05:34;100823.50;;;12.96;81.35
80186;BME280;69904;52.122;5.422;2023-09-19T04:08:00;100823.31;;;12.97;81.45
80186;BME280;69904;52.122;5.422;2023-09-19T04:10:27;100828.72;;;12.97;80.85
80186;BME280;69904;52.122;5.422;2023-09-19T04:12:55;100838.91;;;12.95;81.36
80186;BME280;69904;52.122;5.422;2023-09-19T04:15:22;100836.41;;;12.94;80.98
80186;BME280;69904;52.122;5.422;2023-09-19T04:17:50;100837.69;;;12.91;80.81
80186;BME280;69904;52.122;5.422;2023-09-19T04:20:17;100846.03;;;12.90;80.43
80186;BME280;69904;52.122;5.422;2023-09-19T04:22:46;100831.84;;;12.88;80.50
80186;BME280;69904;52.122;5.422;2023-09-19T04:25:13;100841.03;;;12.87;80.65
80186;BME280;69904;52.122;5.422;2023-09-19T04:27:39;100851.25;;;12.85;80.40
80186;BME280;69904;52.122;5.422;2023-09-19T04:30:08;100849.56;;;12.84;80.64
80186;BME280;69904;52.122;5.422;2023-09-19T04:32:38;100859.81;;;12.82;80.40
80186;BME280;69904;52.122;5.422;2023-09-19T04:35:09;100859.81;;;12.82;80.46
80186;BME280;69904;52.122;5.422;2023-09-19T04:37:40;100859.81;;;12.82;80.63
80186;BME280;69904;52.122;5.422;2023-09-19T04:40:09;100877.69;;;12.83;80.16
80186;BME280;69904;52.122;5.422;2023-09-19T04:42:44;100882.28;;;12.82;80.23
80186;BME280;69904;52.122;5.422;2023-09-19T04:45:10;100878.53;;;12.83;80.25
80186;BME280;69904;52.122;5.422;2023-09-19T04:47:37;100884.78;;;12.84;80.16
80186;BME280;69904;52.122;5.422;2023-09-19T04:50:07;100886.47;;;12.85;80.07
80186;BME280;69904;52.122;5.422;2023-09-19T04:52:34;100875.81;;;12.83;79.57
80186;BME280;69904;52.122;5.422;2023-09-19T04:55:01;100873.94;;;12.84;79.81
80186;BME280;69904;52.122;5.422;2023-09-19T04:57:28;100868.34;;;12.85;80.15
80186;BME280;69904;52.122;5.422;2023-09-19T04:59:54;100873.13;;;12.83;80.34
80186;BME280;69904;52.122;5.422;2023-09-19T05:02:21;100861.69;;;12.81;80.08
80186;BME280;69904;52.122;5.422;2023-09-19T05:04:47;100868.97;;;12.81;80.07
80186;BME280;69904;52.122;5.422;2023-09-19T05:07:14;100866.88;;;12.83;80.12
80186;BME280;69904;52.122;5.422;2023-09-19T05:09:40;100873.94;;;12.84;79.87
80186;BME280;69904;52.122;5.422;2023-09-19T05:12:08;100877.50;;;12.84;80.24
80186;BME280;69904;52.122;5.422;2023-09-19T05:14:37;100880.22;;;12.84;79.87
80186;BME280;69904;52.122;5.422;2023-09-19T05:17:03;100878.53;;;12.83;80.08
80186;BME280;69904;52.122;5.422;2023-09-19T05:19:30;100876.06;;;12.82;80.60
80186;BME280;69904;52.122;5.422;2023-09-19T05:21:57;100878.78;;;12.82;80.12
80186;BME280;69904;52.122;5.422;2023-09-19T05:24:23;100882.50;;;12.81;80.51
80186;BME280;69904;52.122;5.422;2023-09-19T05:26:52;100874.38;;;12.81;80.68
80186;BME280;69904;52.122;5.422;2023-09-19T05:29:19;100889.81;;;12.80;80.23
80186;BME280;69904;52.122;5.422;2023-09-19T05:31:45;100887.28;;;12.79;80.41
80186;BME280;69904;52.122;5.422;2023-09-19T05:34:12;100887.09;;;12.80;80.58
80186;BME280;69904;52.122;5.422;2023-09-19T05:36:38;100887.94;;;12.81;80.92
80186;BME280;69904;52.122;5.422;2023-09-19T05:39:05;100879.56;;;12.82;80.92
80186;BME280;69904;52.122;5.422;2023-09-19T05:41:35;100880.00;;;12.86;80.88
80186;BME280;69904;52.122;5.422;2023-09-19T05:44:06;100873.09;;;12.90;81.04
80186;BME280;69904;52.122;5.422;2023-09-19T05:46:34;100874.78;;;12.91;80.24
80186;BME280;69904;52.122;5.422;2023-09-19T05:49:01;100877.88;;;12.94;80.79
80186;BME280;69904;52.122;5.422;2023-09-19T05:51:27;100876.84;;;12.95;80.94
80186;BME280;69904;52.122;5.422;2023-09-19T05:53:54;100878.72;;;12.95;80.81
80186;BME280;69904;52.122;5.422;2023-09-19T05:56:21;100889.16;;;12.98;80.85
80186;BME280;69904;52.122;5.422;2023-09-19T05:58:48;100891.63;;;12.99;80.79
80186;BME280;69904;52.122;5.422;2023-09-19T06:01:15;100894.13;;;13.01;80.70
80186;BME280;69904;52.122;5.422;2023-09-19T06:03:42;100902.06;;;13.02;80.94
80186;BME280;69904;52.122;5.422;2023-09-19T06:06:09;100894.13;;;13.01;81.00
80186;BME280;69904;52.122;5.422;2023-09-19T06:08:35;100895.19;;;13.00;81.43
80186;BME280;69904;52.122;5.422;2023-09-19T06:11:02;100904.34;;;12.99;81.28
80186;BME280;69904;52.122;5.422;2023-09-19T06:13:29;100908.91;;;12.98;81.23
80186;BME280;69904;52.122;5.422;2023-09-19T06:15:55;100916.84;;;13.00;81.25
80186;BME280;69904;52.122;5.422;2023-09-19T06:18:23;100915.59;;;13.02;81.63
80186;BME280;69904;52.122;5.422;2023-09-19T06:20:52;100913.72;;;13.03;81.33
80186;BME280;69904;52.122;5.422;2023-09-19T06:23:20;100912.06;;;13.02;81.75
80186;BME280;69904;52.122;5.422;2023-09-19T06:25:47;100921.88;;;13.03;81.62
80186;BME280;69904;52.122;5.422;2023-09-19T06:28:14;100914.34;;;13.05;81.94
80186;BME280;69904;52.122;5.422;2023-09-19T06:30:44;100908.50;;;13.08;81.71
80186;BME280;69904;52.122;5.422;2023-09-19T06:33:10;100923.50;;;13.11;81.79
80186;BME280;69904;52.122;5.422;2023-09-19T06:35:42;100916.03;;;13.13;81.50
80186;BME280;69904;52.122;5.422;2023-09-19T06:38:11;100905.38;;;13.18;81.70
80186;BME280;69904;52.122;5.422;2023-09-19T06:40:39;100906.22;;;13.18;81.95
80186;BME280;69904;52.122;5.422;2023-09-19T06:43:10;100903.91;;;13.22;81.78
80186;BME280;69904;52.122;5.422;2023-09-19T06:45:37;100910.78;;;13.24;81.79
80186;BME280;69904;52.122;5.422;2023-09-19T06:48:04;100900.53;;;13.26;82.24
80186;BME280;69904;52.122;5.422;2023-09-19T06:50:32;100906.41;;;13.30;82.18
80186;BME280;69904;52.122;5.422;2023-09-19T06:52:59;100902.19;;;13.34;82.14
80186;BME280;69904;52.122;5.422;2023-09-19T06:55:27;100900.72;;;13.38;82.12
80186;BME280;69904;52.122;5.422;2023-09-19T06:57:55;100913.03;;;13.40;82.69
80186;BME280;69904;52.122;5.422;2023-09-19T07:00:22;100909.66;;;13.45;82.43
80186;BME280;69904;52.122;5.422;2023-09-19T07:03:06;100904.44;;;13.50;82.45
80186;BME280;69904;52.122;5.422;2023-09-19T07:05:39;100906.69;;;13.53;82.58
80186;BME280;69904;52.122;5.422;2023-09-19T07:08:07;100903.34;;;13.58;82.62
80186;BME280;69904;52.122;5.422;2023-09-19T07:10:34;100898.94;;;13.63;82.01
80186;BME280;69904;52.122;5.422;2023-09-19T07:13:06;100907.25;;;13.68;82.28
80186;BME280;69904;52.122;5.422;2023-09-19T07:15:36;100904.72;;;13.73;82.50
80186;BME280;69904;52.122;5.422;2023-09-19T07:18:06;100915.75;;;13.78;82.25
80186;BME280;69904;52.122;5.422;2023-09-19T07:20:32;100910.75;;;13.82;81.76
80186;BME280;69904;52.122;5.422;2023-09-19T07:23:01;100924.69;;;13.85;81.52
80186;BME280;69904;52.122;5.422;2023-09-19T07:25:28;100923.00;;;13.91;81.58
80186;BME280;69904;52.122;5.422;2023-09-19T07:27:58;100930.72;;;13.94;82.00
80186;BME280;69904;52.122;5.422;2023-09-19T07:30:27;100927.34;;;13.99;81.48
80186;BME280;69904;52.122;5.422;2023-09-19T07:32:53;100931.06;;;14.04;81.22
80186;BME280;69904;52.122;5.422;2023-09-19T07:35:20;100933.97;;;14.09;81.08
80186;BME280;69904;52.122;5.422;2023-09-19T07:37:47;100936.84;;;14.14;80.63
80186;BME280;69904;52.122;5.422;2023-09-19T07:40:19;100936.19;;;14.19;80.75
80186;BME280;69904;52.122;5.422;2023-09-19T07:42:47;100941.81;;;14.24;81.13
80186;BME280;69904;52.122;5.422;2023-09-19T07:45:13;100946.34;;;14.30;80.60
80186;BME280;69904;52.122;5.422;2023-09-19T07:47:50;100943.63;;;14.37;80.36
80186;BME280;69904;52.122;5.422;2023-09-19T07:50:18;100945.44;;;14.43;80.21
80186;BME280;69904;52.122;5.422;2023-09-19T07:52:49;100942.91;;;14.48;79.99
80186;BME280;69904;52.122;5.422;2023-09-19T07:55:17;100937.66;;;14.53;79.43
80186;BME280;69904;52.122;5.422;2023-09-19T07:57:46;100941.13;;;14.60;80.14
80186;BME280;69904;52.122;5.422;2023-09-19T08:00:13;100943.44;;;14.63;79.25
80186;BME280;69904;52.122;5.422;2023-09-19T08:02:42;100943.19;;;14.64;79.49
80186;BME280;69904;52.122;5.422;2023-09-19T08:05:10;100942.53;;;14.69;78.82
80186;BME280;69904;52.122;5.422;2023-09-19T08:07:41;100948.94;;;14.74;79.32
80186;BME280;69904;52.122;5.422;2023-09-19T08:10:09;100940.16;;;14.79;79.48
80186;BME280;69904;52.122;5.422;2023-09-19T08:12:47;100944.91;;;14.84;78.80
80186;BME280;69904;52.122;5.422;2023-09-19T08:15:22;100941.75;;;14.87;79.24
80186;BME280;69904;52.122;5.422;2023-09-19T08:17:49;100953.53;;;14.99;79.68
80186;BME280;69904;52.122;5.422;2023-09-19T08:20:16;100936.63;;;14.97;79.13
80186;BME280;69904;52.122;5.422;2023-09-19T08:22:51;100934.94;;;14.96;78.86
80186;BME280;69904;52.122;5.422;2023-09-19T08:25:21;100937.66;;;14.96;78.94
80186;BME280;69904;52.122;5.422;2023-09-19T08:27:49;100933.00;;;15.03;79.50
80186;BME280;69904;52.122;5.422;2023-09-19T08:30:17;100937.56;;;15.09;78.95
80186;BME280;69904;52.122;5.422;2023-09-19T08:32:44;100930.38;;;15.14;78.69
80186;BME280;69904;52.122;5.422;2023-09-19T08:35:13;100933.25;;;15.20;79.06
80186;BME280;69904;52.122;5.422;2023-09-19T08:37:42;100939.69;;;15.25;78.79
80186;BME280;69904;52.122;5.422;2023-09-19T08:40:09;100936.75;;;15.27;78.97
80186;BME280;69904;52.122;5.422;2023-09-19T08:42:49;100941.72;;;15.30;78.12
80186;BME280;69904;52.122;5.422;2023-09-19T08:45:20;100929.78;;;15.31;78.71
80186;BME280;69904;52.122;5.422;2023-09-19T08:50:27;100935.31;;;15.42;79.06
80186;BME280;69904;52.122;5.422;2023-09-19T08:53:00;100929.81;;;15.49;77.92
80186;BME280;69904;52.122;5.422;2023-09-19T08:55:28;100921.63;;;15.49;77.81
80186;BME280;69904;52.122;5.422;2023-09-19T08:58:00;100922.66;;;15.54;77.83
80186;BME280;69904;52.122;5.422;2023-09-19T09:00:28;100929.44;;;15.64;77.65
80186;BME280;69904;52.122;5.422;2023-09-19T09:02:59;100923.31;;;15.68;77.49
80186;BME280;69904;52.122;5.422;2023-09-19T09:05:27;100926.78;;;15.75;76.71
80186;BME280;69904;52.122;5.422;2023-09-19T09:07:55;100920.25;;;15.76;76.75
80186;BME280;69904;52.122;5.422;2023-09-19T09:10:23;100933.78;;;15.83;75.98
80186;BME280;69904;52.122;5.422;2023-09-19T09:12:53;100930.97;;;15.89;76.29
80186;BME280;69904;52.122;5.422;2023-09-19T09:15:22;100931.94;;;15.95;76.27
80186;BME280;69904;52.122;5.422;2023-09-19T09:17:51;100930.19;;;16.00;75.85
80186;BME280;69904;52.122;5.422;2023-09-19T09:20:20;100929.97;;;16.02;75.06
80186;BME280;69904;52.122;5.422;2023-09-19T09:22:54;100920.19;;;16.13;75.52
80186;BME280;69904;52.122;5.422;2023-09-19T09:25:22;100918.75;;;16.10;74.83
80186;BME280;69904;52.122;5.422;2023-09-19T09:28:00;100923.97;;;16.12;74.62
80186;BME280;69904;52.122;5.422;2023-09-19T09:30:35;100924.28;;;16.04;73.38
80186;BME280;69904;52.122;5.422;2023-09-19T09:33:10;100919.44;;;16.06;73.19
80186;BME280;69904;52.122;5.422;2023-09-19T09:35:54;100914.34;;;16.09;74.09
80186;BME280;69904;52.122;5.422;2023-09-19T09:38:26;100915.09;;;16.16;74.03
80186;BME280;69904;52.122;5.422;2023-09-19T09:40:59;100918.91;;;16.27;73.27
80186;BME280;69904;52.122;5.422;2023-09-19T09:43:38;100908.16;;;16.32;73.52
80186;BME280;69904;52.122;5.422;2023-09-19T09:46:11;100907.56;;;16.41;72.71
80186;BME280;69904;52.122;5.422;2023-09-19T09:49:03;100894.06;;;16.47;72.64
80186;BME280;69904;52.122;5.422;2023-09-19T09:51:50;100902.66;;;16.73;72.22
80186;BME280;69904;52.122;5.422;2023-09-19T09:54:28;100904.09;;;16.76;71.03
80186;BME280;69904;52.122;5.422;2023-09-19T09:57:01;100897.31;;;16.78;71.73
80186;BME280;69904;52.122;5.422;2023-09-19T10:02:27;100894.59;;;16.90;71.72
80186;BME280;69904;52.122;5.422;2023-09-19T10:05:13;100902.16;;;16.88;71.58
80186;BME280;69904;52.122;5.422;2023-09-19T10:07:40;100911.06;;;16.83;72.01
80186;BME280;69904;52.122;5.422;2023-09-19T10:10:12;100895.53;;;16.84;71.34
80186;BME280;69904;52.122;5.422;2023-09-19T10:12:44;100901.72;;;16.91;69.60
80186;BME280;69904;52.122;5.422;2023-09-19T10:15:12;100915.81;;;16.88;70.53
80186;BME280;69904;52.122;5.422;2023-09-19T10:17:44;100903.25;;;16.87;71.07
80186;BME280;69904;52.122;5.422;2023-09-19T10:20:17;100910.59;;;16.87;70.78
80186;BME280;69904;52.122;5.422;2023-09-19T10:23:06;100906.69;;;16.82;71.34
80186;BME280;69904;52.122;5.422;2023-09-19T10:25:41;100905.88;;;16.82;70.12
80186;BME280;69904;52.122;5.422;2023-09-19T10:28:12;100903.25;;;16.87;69.85
80186;BME280;69904;52.122;5.422;2023-09-19T10:30:48;100896.84;;;17.05;69.57
80186;BME280;69904;52.122;5.422;2023-09-19T10:33:18;100896.25;;;17.14;69.65
80186;BME280;69904;52.122;5.422;2023-09-19T10:35:48;100885.06;;;17.27;70.02
80186;BME280;69904;52.122;5.422;2023-09-19T10:38:19;100890.72;;;17.38;69.74
80186;BME280;69904;52.122;5.422;2023-09-19T10:40:53;100880.38;;;17.51;69.12
80186;BME280;69904;52.122;5.422;2023-09-19T10:43:21;100867.41;;;17.70;68.74
80186;BME280;69904;52.122;5.422;2023-09-19T10:45:49;100883.78;;;17.58;68.31
80186;BME280;69904;52.122;5.422;2023-09-19T10:48:19;100879.28;;;17.52;68.92
80186;BME280;69904;52.122;5.422;2023-09-19T10:50:53;100885.25;;;17.61;68.96
80186;BME280;69904;52.122;5.422;2023-09-19T10:53:27;100859.94;;;17.54;68.87
80186;BME280;69904;52.122;5.422;2023-09-19T10:55:59;100861.75;;;17.48;68.10
80186;BME280;69904;52.122;5.422;2023-09-19T10:58:31;100867.94;;;17.44;68.85
80186;BME280;69904;52.122;5.422;2023-09-19T11:01:04;100860.91;;;17.59;68.94
80186;BME280;69904;52.122;5.422;2023-09-19T11:03:39;100863.97;;;17.63;68.53
80186;BME280;69904;52.122;5.422;2023-09-19T11:06:14;100854.81;;;17.69;68.30
80186;BME280;69904;52.122;5.422;2023-09-19T11:08:56;100848.56;;;17.85;68.30
80186;BME280;69904;52.122;5.422;2023-09-19T11:11:46;100851.16;;;17.92;67.55
80186;BME280;69904;52.122;5.422;2023-09-19T11:30:33;100845.66;;;18.20;66.42
80186;BME280;69904;52.122;5.422;2023-09-19T11:36:08;100833.56;;;17.99;66.72
80186;BME280;69904;52.122;5.422;2023-09-19T11:43:49;100833.63;;;17.88;68.11
80186;BME280;69904;52.122;5.422;2023-09-19T11:46:21;100820.19;;;17.86;67.64
80186;BME280;69904;52.122;5.422;2023-09-19T11:48:49;100821.84;;;17.87;66.90
80186;BME280;69904;52.122;5.422;2023-09-19T11:51:18;100828.56;;;17.96;66.47
80186;BME280;69904;52.122;5.422;2023-09-19T11:53:46;100827.59;;;18.02;66.41
80186;BME280;69904;52.122;5.422;2023-09-19T11:56:23;100810.63;;;18.17;65.76
80186;BME280;69904;52.122;5.422;2023-09-19T11:58:55;100813.84;;;18.14;65.54
80186;BME280;69904;52.122;5.422;2023-09-19T12:01:25;100816.81;;;18.13;65.41
80186;BME280;69904;52.122;5.422;2023-09-19T12:03:58;100827.75;;;18.13;65.54
80186;BME280;69904;52.122;5.422;2023-09-19T12:06:26;100831.81;;;18.10;64.76
80186;BME280;69904;52.122;5.422;2023-09-19T12:08:53;100840.50;;;18.07;64.88
80186;BME280;69904;52.122;5.422;2023-09-19T12:11:22;100836.69;;;18.08;65.38
80186;BME280;69904;52.122;5.422;2023-09-19T12:13:49;100839.03;;;18.16;65.15
80186;BME280;69904;52.122;5.422;2023-09-19T12:16:17;100834.13;;;18.18;65.00
80186;BME280;69904;52.122;5.422;2023-09-19T12:18:49;100837.47;;;18.20;63.72
80186;BME280;69904;52.122;5.422;2023-09-19T12:21:26;100839.34;;;18.20;64.26
80186;BME280;69904;52.122;5.422;2023-09-19T12:26:40;100835.03;;;18.24;64.51
80186;BME280;69904;52.122;5.422;2023-09-19T12:29:18;100838.75;;;18.18;64.95
80186;BME280;69904;52.122;5.422;2023-09-19T12:31:55;100822.53;;;18.11;64.78
80186;BME280;69904;52.122;5.422;2023-09-19T12:34:30;100829.09;;;18.10;65.17
80186;BME280;69904;52.122;5.422;2023-09-19T12:37:11;100820.31;;;18.08;64.98
80186;BME280;69904;52.122;5.422;2023-09-19T12:39:39;100821.47;;;18.12;64.89
80186;BME280;69904;52.122;5.422;2023-09-19T12:42:09;100820.91;;;18.10;65.19
80186;BME280;69904;52.122;5.422;2023-09-19T12:44:37;100822.44;;;18.06;65.56
80186;BME280;69904;52.122;5.422;2023-09-19T12:47:11;100829.72;;;18.00;66.24
80186;BME280;69904;52.122;5.422;2023-09-19T12:52:36;100839.16;;;17.93;66.28
80186;BME280;69904;52.122;5.422;2023-09-19T12:55:04;100827.41;;;17.92;66.92
80186;BME280;69904;52.122;5.422;2023-09-19T12:57:34;100826.56;;;17.92;66.99
80186;BME280;69904;52.122;5.422;2023-09-19T13:00:04;100826.34;;;17.93;66.99
80186;BME280;69904;52.122;5.422;2023-09-19T13:02:37;100830.81;;;17.99;67.18
80186;BME280;69904;52.122;5.422;2023-09-19T13:05:04;100824.63;;;18.04;66.93
80186;BME280;69904;52.122;5.422;2023-09-19T13:07:40;100829.56;;;18.07;66.97
80186;BME280;69904;52.122;5.422;2023-09-19T13:10:09;100834.78;;;18.08;66.52
80186;BME280;69904;52.122;5.422;2023-09-19T13:12:38;100841.41;;;18.13;66.65
80186;BME280;69904;52.122;5.422;2023-09-19T13:15:12;100838.34;;;18.09;67.08
80186;BME280;69904;52.122;5.422;2023-09-19T13:17:51;100831.47;;;18.06;66.52
80186;BME280;69904;52.122;5.422;2023-09-19T13:20:26;100835.78;;;18.02;67.24
80186;BME280;69904;52.122;5.422;2023-09-19T13:22:58;100848.03;;;18.00;67.40
80186;BME280;69904;52.122;5.422;2023-09-19T13:25:27;100840.75;;;17.89;68.14
80186;BME280;69904;52.122;5.422;2023-09-19T13:27:57;100859.75;;;17.84;68.45
80186;BME280;69904;52.122;5.422;2023-09-19T13:30:25;100859.66;;;17.79;68.64
80186;BME280;69904;52.122;5.422;2023-09-19T13:33:03;100841.13;;;17.81;68.41
80186;BME280;69904;52.122;5.422;2023-09-19T13:35:30;100832.88;;;17.92;68.20
80186;BME280;69904;52.122;5.422;2023-09-19T13:37:57;100833.28;;;18.01;68.42
80186;BME280;69904;52.122;5.422;2023-09-19T13:40:23;100831.47;;;18.06;67.98
80186;BME280;69904;52.122;5.422;2023-09-19T13:42:54;100822.06;;;18.14;67.69
80186;BME280;69904;52.122;5.422;2023-09-19T13:45:20;100821.63;;;18.22;66.93
80186;BME280;69904;52.122;5.422;2023-09-19T13:47:48;100822.72;;;18.21;67.21
80186;BME280;69904;52.122;5.422;2023-09-19T13:50:15;100826.84;;;18.24;66.56